Time;durP1;ratioP1;P1;durP2;ratioP2;P2;SDS_P1;SDS_P2;PMS_P1;PMS_P2;Temp;Humidity;BMP_temperature;BMP_pressure;BME280_temperature;BME280_humidity;BME280_pressure;Samples;Min_cycle;Max_cycle;Signal;HPM_P1;HPM_P2
2021/11/08 00:01:13;;;;;;;11.53;2.50;;;;;;;4.45;100.00;100597.25;6128281;23;20181;-72
2021/11/08 00:03:44;;;;;;;9.73;2.87;;;;;;;4.41;100.00;100598.13;6127972;23;20224;-72
2021/11/08 00:06:11;;;;;;;14.00;2.50;;;;;;;4.42;100.00;100598.13;6127909;23;20256;-73
2021/11/08 00:08:39;;;;;;;8.47;2.40;;;;;;;4.41;100.00;100600.72;6128043;23;20335;-72
2021/11/08 00:11:06;;;;;;;5.27;2.00;;;;;;;4.43;100.00;100606.75;6127511;23;20181;-72
2021/11/08 00:13:33;;;;;;;7.20;2.40;;;;;;;4.41;100.00;100611.03;6127537;23;20632;-72
2021/11/08 00:16:10;;;;;;;6.27;2.20;;;;;;;4.39;100.00;100608.47;6118097;23;20248;-72
2021/11/08 00:18:41;;;;;;;8.20;2.70;;;;;;;4.42;100.00;100611.03;6127910;23;20198;-72
2021/11/08 00:21:09;;;;;;;4.20;2.20;;;;;;;4.38;100.00;100619.66;6127987;23;20268;-72
2021/11/08 00:23:37;;;;;;;6.83;2.50;;;;;;;4.40;100.00;100624.81;6128230;23;20201;-72
2021/11/08 00:26:04;;;;;;;7.33;2.57;;;;;;;4.38;100.00;100622.25;6128210;23;20193;-72
2021/11/08 00:28:31;;;;;;;5.10;1.73;;;;;;;4.35;100.00;100620.50;6127902;23;20180;-73
2021/11/08 00:30:57;;;;;;;16.23;2.50;;;;;;;4.41;100.00;100611.91;6127937;23;20264;-72
2021/11/08 00:33:24;;;;;;;9.20;2.83;;;;;;;4.41;100.00;100616.22;6127422;23;20722;-72
2021/11/08 00:35:54;;;;;;;10.50;2.70;;;;;;;4.41;100.00;100619.66;6118232;23;20197;-72
2021/11/08 00:38:22;;;;;;;10.40;2.53;;;;;;;4.39;100.00;100623.09;6127295;23;20201;-72
2021/11/08 00:40:49;;;;;;;6.90;2.40;;;;;;;4.35;100.00;100615.34;6127806;23;20177;-72
2021/11/08 00:43:16;;;;;;;6.17;1.93;;;;;;;4.38;100.00;100618.78;6127817;23;20181;-72
2021/11/08 00:45:43;;;;;;;7.37;1.80;;;;;;;4.46;100.00;100611.91;6118379;23;20289;-72
2021/11/08 00:48:10;;;;;;;6.47;2.63;;;;;;;4.52;100.00;100617.03;6127691;23;20169;-72
2021/11/08 00:50:38;;;;;;;9.60;3.17;;;;;;;4.59;100.00;100626.53;6127893;23;20204;-72
2021/11/08 00:53:05;;;;;;;7.90;1.90;;;;;;;4.58;100.00;100622.22;6118054;23;20243;-72
2021/11/08 00:55:34;;;;;;;9.23;2.37;;;;;;;4.53;100.00;100629.09;6128179;23;20190;-72
2021/11/08 00:58:02;;;;;;;8.70;2.40;;;;;;;4.61;100.00;100629.97;6128131;23;20173;-73
2021/11/08 01:00:31;;;;;;;4.27;1.93;;;;;;;4.54;100.00;100631.69;6127676;23;20252;-72
2021/11/08 01:02:59;;;;;;;6.63;1.90;;;;;;;4.49;100.00;100629.97;6128387;23;20210;-72
2021/11/08 01:05:26;;;;;;;11.37;2.50;;;;;;;4.47;100.00;100624.81;6129748;23;20735;-72
2021/11/08 01:07:53;;;;;;;9.53;2.37;;;;;;;4.42;100.00;100626.53;6129827;23;20577;-72
2021/11/08 01:10:20;;;;;;;9.57;2.00;;;;;;;4.49;100.00;100624.81;6129589;23;20173;-72
2021/11/08 01:12:49;;;;;;;9.27;2.30;;;;;;;4.49;100.00;100624.81;6129428;23;20190;-72
2021/11/08 01:15:16;;;;;;;9.77;2.00;;;;;;;4.46;100.00;100629.97;6129740;23;20193;-72
2021/11/08 01:17:43;;;;;;;6.77;2.40;;;;;;;4.48;100.00;100623.94;6129781;23;20177;-72
2021/11/08 01:20:12;;;;;;;6.07;1.83;;;;;;;4.46;100.00;100627.41;6129478;23;20490;-72
2021/11/08 01:22:40;;;;;;;9.70;1.80;;;;;;;4.47;100.00;100627.41;6129671;23;20557;-72
2021/11/08 01:25:09;;;;;;;8.23;2.30;;;;;;;4.53;100.00;100629.97;6129190;23;20688;-72
2021/11/08 01:27:40;;;;;;;8.40;2.23;;;;;;;4.60;100.00;100635.97;6093206;23;20193;-72
2021/11/08 01:30:13;;;;;;;6.93;2.03;;;;;;;4.57;100.00;100627.38;6128942;23;20177;-72
2021/11/08 01:32:40;;;;;;;13.80;2.07;;;;;;;4.55;100.00;100630.81;6128447;23;20177;-72
2021/11/08 01:35:08;;;;;;;8.20;1.70;;;;;;;4.54;100.00;100636.00;6129224;23;20260;-72
2021/11/08 01:37:36;;;;;;;7.93;2.17;;;;;;;4.50;100.00;100636.84;6128563;23;20541;-72
2021/11/08 01:40:03;;;;;;;6.43;2.17;;;;;;;4.49;100.00;100646.31;6118982;23;20232;-72
2021/11/08 01:42:30;;;;;;;4.23;1.73;;;;;;;4.49;100.00;100645.47;6128972;23;20928;-72
2021/11/08 01:44:56;;;;;;;6.77;1.70;;;;;;;4.48;100.00;100652.34;6129351;23;20482;-72
2021/11/08 01:47:24;;;;;;;7.87;2.00;;;;;;;4.54;100.00;100652.34;6117375;23;20181;-72
2021/11/08 01:49:51;;;;;;;11.00;2.40;;;;;;;4.61;100.00;100640.28;6128127;23;20310;-72
2021/11/08 01:52:17;;;;;;;9.10;1.80;;;;;;;4.70;100.00;100649.75;6127709;23;20836;-72
2021/11/08 01:54:43;;;;;;;8.43;1.87;;;;;;;4.76;100.00;100649.72;6129289;23;20201;-72
2021/11/08 01:57:10;;;;;;;8.33;2.03;;;;;;;4.86;100.00;100654.03;6128041;23;20173;-72
2021/11/08 01:59:37;;;;;;;8.10;2.27;;;;;;;4.91;100.00;100654.88;6128741;23;20296;-72
2021/11/08 02:02:03;;;;;;;10.50;1.90;;;;;;;4.97;100.00;100656.56;6128049;23;20939;-73
2021/11/08 02:04:31;;;;;;;6.67;1.97;;;;;;;5.01;100.00;100660.00;6129330;23;20173;-72
2021/11/08 02:06:58;;;;;;;4.60;2.00;;;;;;;5.09;100.00;100656.53;6128361;23;20671;-72
2021/11/08 02:09:24;;;;;;;8.67;1.90;;;;;;;5.13;100.00;100666.00;6129192;23;20177;-72
2021/11/08 02:11:51;;;;;;;9.33;2.20;;;;;;;5.17;100.00;100666.00;6119073;23;20184;-72
2021/11/08 02:14:17;;;;;;;6.70;1.67;;;;;;;5.19;100.00;100664.25;6128447;23;20212;-72
2021/11/08 02:16:44;;;;;;;6.30;2.10;;;;;;;5.25;100.00;100661.66;6128724;23;20169;-72
2021/11/08 02:19:11;;;;;;;6.17;2.47;;;;;;;5.26;100.00;100661.66;6127611;23;20678;-72
2021/11/08 02:21:38;;;;;;;7.40;2.20;;;;;;;5.30;100.00;100668.53;6128901;23;20587;-72
2021/11/08 02:24:09;;;;;;;11.03;2.67;;;;;;;5.32;100.00;100659.03;6128861;23;20234;-72
2021/11/08 02:26:36;;;;;;;8.43;2.10;;;;;;;5.32;100.00;100671.13;6128787;23;20205;-72
2021/11/08 02:29:04;;;;;;;8.37;2.17;;;;;;;5.32;100.00;100678.88;6118618;23;20609;-72
2021/11/08 02:31:33;;;;;;;6.70;2.17;;;;;;;5.36;100.00;100679.72;6128408;23;20214;-73
2021/11/08 02:34:00;;;;;;;5.97;1.80;;;;;;;5.36;100.00;100680.56;6128650;23;20187;-72
2021/11/08 02:36:26;;;;;;;6.60;1.80;;;;;;;5.38;100.00;100689.22;6128445;23;20204;-72
2021/11/08 02:38:56;;;;;;;7.83;1.97;;;;;;;5.40;100.00;100689.16;6128764;23;20193;-72
2021/11/08 02:41:25;;;;;;;9.73;2.30;;;;;;;5.43;100.00;100686.59;6128656;23;20548;-72
2021/11/08 02:43:53;;;;;;;6.57;1.93;;;;;;;5.43;100.00;100684.00;6128931;23;20184;-72
2021/11/08 02:46:24;;;;;;;6.03;2.03;;;;;;;5.42;100.00;100688.31;6128730;23;20275;-72
2021/11/08 02:48:51;;;;;;;11.20;1.90;;;;;;;5.44;100.00;100690.91;6128307;23;20632;-72
2021/11/08 02:51:22;;;;;;;7.70;2.00;;;;;;;5.45;100.00;100693.47;6128596;23;20659;-72
2021/11/08 02:53:52;;;;;;;5.23;1.80;;;;;;;5.47;100.00;100696.91;6128234;23;20244;-72
2021/11/08 02:56:20;;;;;;;5.30;2.40;;;;;;;5.48;100.00;100693.44;6127906;23;20197;-72
2021/11/08 02:58:47;;;;;;;5.90;1.80;;;;;;;5.49;100.00;100689.16;6118334;23;20272;-72
2021/11/08 03:01:17;;;;;;;8.80;1.90;;;;;;;5.50;100.00;100699.50;6118816;23;20221;-72
2021/11/08 03:03:46;;;;;;;8.43;2.17;;;;;;;5.51;100.00;100697.75;6128347;23;20280;-72
2021/11/08 03:06:17;;;;;;;8.13;2.03;;;;;;;5.54;100.00;100707.22;6128480;23;20255;-73
2021/11/08 03:08:44;;;;;;;7.77;1.73;;;;;;;5.56;100.00;100701.19;6128314;23;20244;-72
2021/11/08 03:11:11;;;;;;;9.07;2.30;;;;;;;5.58;100.00;100698.59;6128391;23;20173;-72
2021/11/08 03:13:45;;;;;;;7.47;1.90;;;;;;;5.60;100.00;100702.88;6128094;23;20180;-72
2021/11/08 03:16:18;;;;;;;7.23;2.17;;;;;;;5.59;100.00;100697.72;6128194;23;20272;-72
2021/11/08 03:18:52;;;;;;;7.13;1.90;;;;;;;5.57;100.00;100704.63;6092006;23;20191;-72
2021/11/08 03:21:20;;;;;;;7.50;2.30;;;;;;;5.59;100.00;100697.72;6128033;23;20637;-72
2021/11/08 03:23:49;;;;;;;3.90;1.83;;;;;;;5.60;100.00;100697.72;6128008;23;20268;-72
2021/11/08 03:26:28;;;;;;;6.80;2.47;;;;;;;5.60;100.00;100702.88;6127986;23;20201;-72
2021/11/08 03:28:56;;;;;;;5.70;1.77;;;;;;;5.63;100.00;100705.47;6127864;23;20212;-72
2021/11/08 03:31:23;;;;;;;7.93;1.73;;;;;;;5.65;100.00;100700.28;6127782;23;20208;-72
2021/11/08 03:33:50;;;;;;;6.30;2.20;;;;;;;5.68;100.00;100708.03;6127409;23;20260;-72
2021/11/08 03:36:16;;;;;;;7.10;2.63;;;;;;;5.71;100.00;100702.00;6117838;23;20193;-72
2021/11/08 03:38:43;;;;;;;6.80;2.30;;;;;;;5.73;100.00;100710.59;6127962;23;20181;-72
2021/11/08 03:41:10;;;;;;;5.13;2.30;;;;;;;5.73;100.00;100711.44;6127623;23;20276;-72
2021/11/08 03:43:37;;;;;;;6.87;2.10;;;;;;;5.75;100.00;100714.91;6127440;23;20239;-73
2021/11/08 03:46:06;;;;;;;6.90;2.10;;;;;;;5.75;100.00;100725.25;6127994;23;20201;-72
2021/11/08 03:48:32;;;;;;;6.00;2.27;;;;;;;5.77;100.00;100727.81;6127616;23;20268;-72
2021/11/08 03:50:59;;;;;;;7.13;2.40;;;;;;;5.77;100.00;100731.28;6127913;23;20710;-72
2021/11/08 03:53:26;;;;;;;5.23;2.30;;;;;;;5.76;100.00;100733.88;6091816;23;20620;-72
2021/11/08 03:55:53;;;;;;;7.30;1.87;;;;;;;5.74;100.00;100740.78;6128091;23;20193;-72
2021/11/08 03:58:20;;;;;;;8.20;2.37;;;;;;;5.73;100.00;100741.63;6127776;23;20178;-72
2021/11/08 04:00:49;;;;;;;7.10;2.10;;;;;;;5.68;100.00;100745.13;6127919;23;20193;-72
2021/11/08 04:03:17;;;;;;;7.20;1.80;;;;;;;5.63;100.00;100740.84;6128134;23;20489;-72
2021/11/08 04:05:44;;;;;;;9.37;2.50;;;;;;;5.57;100.00;100743.44;6127618;23;20201;-72
2021/11/08 04:08:15;;;;;;;8.47;2.10;;;;;;;5.51;100.00;100733.97;6127751;23;20184;-72
2021/11/08 04:10:43;;;;;;;7.23;2.03;;;;;;;5.49;100.00;100746.91;6128200;23;20209;-72
2021/11/08 04:13:11;;;;;;;6.60;2.93;;;;;;;5.46;100.00;100752.06;6127509;23;20373;-72
2021/11/08 04:15:40;;;;;;;7.30;1.87;;;;;;;5.47;100.00;100756.41;6117900;23;20256;-72
2021/11/08 04:18:09;;;;;;;6.73;2.43;;;;;;;5.46;100.00;100746.06;6127089;23;20181;-72
2021/11/08 04:20:40;;;;;;;6.20;2.03;;;;;;;5.43;100.00;100754.66;6127862;23;20633;-72
2021/11/08 04:23:07;;;;;;;6.10;2.30;;;;;;;5.41;100.00;100756.41;6127604;23;20546;-72
2021/11/08 04:25:33;;;;;;;8.23;2.23;;;;;;;5.43;100.00;100759.00;6127999;23;20200;-72
2021/11/08 04:27:59;;;;;;;9.23;2.70;;;;;;;5.40;100.00;100762.47;6091159;23;20542;-72
2021/11/08 04:30:27;;;;;;;5.53;2.10;;;;;;;5.42;100.00;100767.63;6127618;23;20216;-72
2021/11/08 04:33:15;;;;;;;9.50;2.30;;;;;;;5.41;100.00;100779.69;6126956;23;20205;-72
2021/11/08 04:35:50;;;;;;;7.17;2.37;;;;;;;5.40;100.00;100780.56;6127745;23;20688;-72
2021/11/08 04:38:36;;;;;;;8.07;2.17;;;;;;;5.39;100.00;100785.72;6128664;23;20251;-72
2021/11/08 04:41:11;;;;;;;5.97;2.57;;;;;;;5.39;100.00;100785.72;6129409;23;20220;-72
2021/11/08 04:43:51;;;;;;;5.80;2.70;;;;;;;5.36;100.00;100786.59;6129633;23;20172;-72
2021/11/08 04:46:39;;;;;;;12.07;2.50;;;;;;;5.38;100.00;100786.59;6129244;23;20518;-72
2021/11/08 04:49:15;;;;;;;7.80;2.23;;;;;;;5.37;100.00;100795.22;6129271;23;20636;-72
2021/11/08 04:51:52;;;;;;;8.60;2.20;;;;;;;5.35;100.00;100794.34;6129689;23;20482;-72
2021/11/08 04:54:27;;;;;;;7.70;2.63;;;;;;;5.34;100.00;100796.06;6129465;23;20184;-72
2021/11/08 04:57:23;;;;;;;6.20;2.20;;;;;;;5.33;100.00;100796.94;6119526;23;20185;-72
2021/11/08 05:22:03;;;;;;;7.60;2.57;;;;;;;5.34;100.00;100806.41;6129406;23;20346;-72
2021/11/08 05:24:40;;;;;;;8.23;2.50;;;;;;;5.33;100.00;100812.47;6128768;23;20498;-72
2021/11/08 05:30:06;;;;;;;7.43;2.83;;;;;;;5.34;100.00;100815.91;6126946;23;20184;-72
2021/11/08 05:32:35;;;;;;;6.43;2.37;;;;;;;5.36;100.00;100824.50;6128028;23;20466;-72
2021/11/08 05:35:03;;;;;;;5.33;2.53;;;;;;;5.34;100.00;100824.50;6128607;23;20671;-72
2021/11/08 05:37:30;;;;;;;5.40;2.50;;;;;;;5.36;100.00;100840.03;6128402;23;20191;-72
2021/11/08 05:40:05;;;;;;;7.27;2.83;;;;;;;5.36;100.00;100838.28;6128117;23;20197;-72
2021/11/08 05:42:32;;;;;;;7.77;2.50;;;;;;;5.37;100.00;100836.59;6118743;23;20231;-72
2021/11/08 05:44:59;;;;;;;7.93;2.60;;;;;;;5.37;100.00;100841.75;6128906;23;20287;-72
2021/11/08 05:47:25;;;;;;;9.77;2.53;;;;;;;5.37;100.00;100844.34;6128632;23;20183;-72
2021/11/08 05:49:52;;;;;;;7.53;3.00;;;;;;;5.37;100.00;100841.75;6128883;23;20264;-72
2021/11/08 05:52:19;;;;;;;9.40;3.00;;;;;;;5.38;100.00;100843.47;6128425;23;20173;-72
2021/11/08 05:54:46;;;;;;;7.53;2.60;;;;;;;5.38;100.00;100849.53;6129123;23;20189;-72
2021/11/08 05:57:39;;;;;;;6.57;2.67;;;;;;;5.39;100.00;100850.38;6128572;23;20583;-72
2021/11/08 06:00:52;;;;;;;7.43;2.97;;;;;;;5.38;100.00;100862.44;6127461;23;20198;-72
2021/11/08 06:50:00;;;;;;;7.90;3.90;;;;;;;5.59;100.00;100938.28;6128401;23;20177;-72
2021/11/08 06:52:27;;;;;;;12.53;4.43;;;;;;;5.60;100.00;100940.88;6128440;23;20204;-72
2021/11/08 06:54:55;;;;;;;7.63;4.20;;;;;;;5.61;100.00;100942.59;6128552;23;20670;-72
2021/11/08 06:57:24;;;;;;;12.00;4.57;;;;;;;5.60;100.00;100938.28;6129103;23;20180;-72
2021/11/08 06:59:51;;;;;;;7.33;4.03;;;;;;;5.62;100.00;100944.31;6128935;23;20177;-72
2021/11/08 07:02:20;;;;;;;14.37;4.20;;;;;;;5.66;100.00;100943.47;6127947;23;20200;-73
2021/11/08 07:04:46;;;;;;;11.53;4.73;;;;;;;5.67;100.00;100952.94;6127938;23;20193;-74
2021/11/08 07:07:14;;;;;;;9.60;4.00;;;;;;;5.67;100.00;100955.53;6127047;23;20207;-73
2021/11/08 07:09:41;;;;;;;13.33;4.60;;;;;;;5.69;100.00;100960.69;6128212;23;20177;-73
2021/11/08 07:12:09;;;;;;;13.87;4.77;;;;;;;5.70;100.00;100967.63;6127658;23;20467;-74
2021/11/08 07:14:36;;;;;;;17.33;4.90;;;;;;;5.73;100.00;100969.31;6127883;23;20225;-73
2021/11/08 07:17:02;;;;;;;13.30;4.93;;;;;;;5.75;100.00;100973.66;6127879;23;20205;-73
2021/11/08 07:19:31;;;;;;;9.17;4.03;;;;;;;5.77;100.00;100976.22;6128154;23;20184;-73
2021/11/08 07:21:57;;;;;;;18.07;4.90;;;;;;;5.79;100.00;100982.28;6127200;23;20287;-74
2021/11/08 07:24:24;;;;;;;9.03;4.23;;;;;;;5.82;100.00;100990.00;6127708;23;20264;-73
2021/11/08 07:26:50;;;;;;;11.53;4.60;;;;;;;5.80;100.00;100995.19;6127185;23;20174;-74
2021/11/08 07:29:17;;;;;;;10.77;5.07;;;;;;;5.84;100.00;100996.03;6127778;23;20201;-74
2021/11/08 07:31:44;;;;;;;13.57;4.70;;;;;;;5.82;100.00;101001.25;6127642;23;20252;-73
2021/11/08 07:34:11;;;;;;;12.37;4.43;;;;;;;5.83;100.00;100996.91;6127872;23;20260;-74
2021/11/08 07:36:40;;;;;;;13.20;4.83;;;;;;;5.87;100.00;101002.09;6126586;23;20205;-74
2021/11/08 07:39:07;;;;;;;10.20;4.33;;;;;;;5.87;100.00;100999.53;6127983;23;20820;-73
2021/11/08 07:41:34;;;;;;;12.40;4.50;;;;;;;5.90;100.00;100997.78;6127507;23;20203;-74
2021/11/08 07:44:01;;;;;;;7.93;4.17;;;;;;;5.89;100.00;101007.25;6128417;23;20173;-73
2021/11/08 07:46:27;;;;;;;9.20;4.67;;;;;;;5.90;100.00;101003.81;6127803;23;20199;-74
2021/11/08 07:48:53;;;;;;;8.73;4.40;;;;;;;5.92;100.00;101012.44;6127719;23;20173;-74
2021/11/08 07:51:21;;;;;;;8.50;4.03;;;;;;;5.97;100.00;101015.91;6127750;23;20174;-73
2021/11/08 07:53:49;;;;;;;11.07;4.27;;;;;;;5.98;100.00;101019.34;6127496;23;20578;-73
2021/11/08 07:56:16;;;;;;;9.40;4.10;;;;;;;6.02;100.00;101021.09;6127505;23;20703;-73
2021/11/08 07:58:43;;;;;;;16.07;4.30;;;;;;;6.00;100.00;101028.00;6127539;23;20177;-74
2021/11/08 08:01:10;;;;;;;9.33;4.20;;;;;;;6.05;100.00;101029.72;6126957;23;20193;-73
2021/11/08 08:03:38;;;;;;;10.87;4.07;;;;;;;6.06;100.00;101022.81;6117457;23;20553;-73
2021/11/08 08:06:06;;;;;;;11.90;4.80;;;;;;;6.06;100.00;101030.56;6117332;23;20283;-74
2021/11/08 08:08:33;;;;;;;11.70;5.10;;;;;;;6.06;100.00;101034.03;6127024;23;20264;-74
2021/11/08 08:11:03;;;;;;;11.00;4.80;;;;;;;6.05;100.00;101040.06;6127290;23;20248;-73
2021/11/08 08:13:30;;;;;;;10.73;5.13;;;;;;;6.10;100.00;101034.03;6126714;23;20177;-73
2021/11/08 08:15:59;;;;;;;17.80;5.10;;;;;;;6.16;100.00;101044.38;6091016;23;20238;-74
2021/11/08 08:18:26;;;;;;;10.13;4.27;;;;;;;6.19;100.00;101049.53;6126767;23;20767;-73
2021/11/08 08:20:53;;;;;;;14.87;5.93;;;;;;;6.23;100.00;101049.53;6128052;23;20193;-73
2021/11/08 08:23:19;;;;;;;9.10;4.13;;;;;;;6.24;100.00;101047.81;6127245;23;20178;-73
2021/11/08 08:25:46;;;;;;;12.57;5.30;;;;;;;6.25;100.00;101052.13;6127510;23;20205;-74
2021/11/08 08:28:15;;;;;;;11.30;4.73;;;;;;;6.32;100.00;101053.00;6126696;23;20205;-74
2021/11/08 08:30:42;;;;;;;14.90;5.27;;;;;;;6.34;100.00;101056.44;6127173;23;20169;-74
2021/11/08 08:33:08;;;;;;;14.27;5.43;;;;;;;6.38;100.00;101053.81;6126637;23;20176;-74
2021/11/08 08:35:40;;;;;;;10.57;4.97;;;;;;;6.37;100.00;101057.28;6127055;23;20512;-74
2021/11/08 08:38:08;;;;;;;11.87;4.67;;;;;;;6.42;100.00;101054.69;6116790;23;20820;-74
2021/11/08 08:40:34;;;;;;;10.37;4.57;;;;;;;6.48;100.00;101056.41;6126681;23;20201;-73
2021/11/08 08:43:02;;;;;;;15.20;5.40;;;;;;;6.52;100.00;101066.75;6127105;23;20180;-73
2021/11/08 08:45:30;;;;;;;9.20;4.23;;;;;;;6.56;100.00;101065.00;6127074;23;20197;-73
2021/11/08 08:47:56;;;;;;;10.00;4.77;;;;;;;6.57;100.00;101072.78;6127107;23;20214;-74
2021/11/08 08:50:23;;;;;;;10.30;4.60;;;;;;;6.60;100.00;101077.97;6126638;23;20181;-74
2021/11/08 08:52:50;;;;;;;13.63;4.73;;;;;;;6.57;100.00;101075.38;6127240;23;20180;-73
2021/11/08 08:55:17;;;;;;;7.77;4.50;;;;;;;6.58;100.00;101084.03;6126925;23;20200;-73
2021/11/08 08:57:43;;;;;;;11.23;4.40;;;;;;;6.57;100.00;101088.31;6127164;23;20713;-73
2021/11/08 09:00:12;;;;;;;12.37;4.90;;;;;;;6.60;100.00;101088.31;6126558;23;20184;-74
2021/11/08 09:02:40;;;;;;;10.50;4.40;;;;;;;6.62;100.00;101090.91;6126676;23;20316;-74
2021/11/08 09:05:07;;;;;;;7.97;4.47;;;;;;;6.66;100.00;101089.19;6126475;23;20193;-74
2021/11/08 09:07:34;;;;;;;13.53;5.30;;;;;;;6.67;100.00;101091.78;6090720;23;20186;-73
2021/11/08 09:10:00;;;;;;;13.83;7.07;;;;;;;6.75;100.00;101094.34;6126714;23;20261;-74
2021/11/08 09:12:27;;;;;;;14.40;6.30;;;;;;;6.77;100.00;101092.59;6126363;23;20177;-73
2021/11/08 09:14:53;;;;;;;12.37;4.97;;;;;;;6.80;100.00;101088.25;6126526;23;20194;-73
2021/11/08 09:17:19;;;;;;;9.23;3.90;;;;;;;6.83;100.00;101090.84;6126498;23;20198;-73
2021/11/08 09:19:47;;;;;;;7.80;4.07;;;;;;;6.90;100.00;101094.28;6126787;23;20269;-74
2021/11/08 09:22:14;;;;;;;16.03;6.60;;;;;;;6.91;100.00;101103.81;6126567;23;20197;-73
2021/11/08 09:24:40;;;;;;;10.83;4.50;;;;;;;6.96;100.00;101106.38;6118740;23;20263;-74
2021/11/08 09:27:08;;;;;;;9.63;4.00;;;;;;;7.03;100.00;101115.00;6127667;23;20268;-74
2021/11/08 09:29:34;;;;;;;9.23;4.00;;;;;;;7.03;100.00;101118.44;6127131;23;20492;-73
2021/11/08 09:32:02;;;;;;;22.00;7.97;;;;;;;7.05;100.00;101119.28;6128285;23;20263;-74
2021/11/08 09:34:28;;;;;;;10.70;4.13;;;;;;;7.11;100.00;101119.28;6127876;23;20209;-74
2021/11/08 09:36:59;;;;;;;8.73;3.80;;;;;;;7.13;100.00;101114.94;6127509;23;20182;-74
2021/11/08 09:39:27;;;;;;;11.27;4.03;;;;;;;7.12;100.00;101125.31;6126762;23;20179;-74
2021/11/08 09:41:58;;;;;;;13.83;5.40;;;;;;;7.11;100.00;101116.69;6128264;23;20233;-74
2021/11/08 09:44:25;;;;;;;14.57;6.60;;;;;;;7.12;100.00;101127.91;6128268;23;20641;-73
2021/11/08 09:46:53;;;;;;;10.27;4.60;;;;;;;7.14;100.00;101126.16;6118554;23;20178;-74
2021/11/08 09:49:20;;;;;;;12.40;4.63;;;;;;;7.16;100.00;101124.47;6128044;23;20172;-73
2021/11/08 09:51:49;;;;;;;15.93;6.60;;;;;;;7.15;100.00;101131.34;6127876;23;20184;-74
2021/11/08 09:54:19;;;;;;;13.87;6.10;;;;;;;7.13;100.00;101135.69;6127875;23;20184;-73
2021/11/08 09:56:49;;;;;;;6.83;3.57;;;;;;;7.20;100.00;101131.34;6117938;23;20282;-73
2021/11/08 09:59:16;;;;;;;10.03;4.80;;;;;;;7.26;100.00;101141.69;6128070;23;20539;-73
2021/11/08 10:01:44;;;;;;;12.13;4.00;;;;;;;7.43;100.00;101144.22;6127974;23;20301;-74
2021/11/08 10:04:11;;;;;;;11.73;4.30;;;;;;;7.60;100.00;101144.13;6118221;23;20184;-73
2021/11/08 10:06:38;;;;;;;9.57;4.00;;;;;;;7.69;100.00;101151.84;6127257;23;20195;-74
2021/11/08 10:09:05;;;;;;;4.73;3.40;;;;;;;7.74;100.00;101144.06;6128337;23;20198;-74
2021/11/08 10:11:36;;;;;;;13.23;4.10;;;;;;;7.77;100.00;101144.91;6127947;23;20179;-74
2021/11/08 10:14:03;;;;;;;8.77;3.83;;;;;;;7.78;100.00;101149.19;6128239;23;20176;-74
2021/11/08 10:16:33;;;;;;;7.97;2.93;;;;;;;7.81;100.00;101156.13;6127845;23;20200;-74
2021/11/08 10:19:04;;;;;;;6.97;3.17;;;;;;;7.73;100.00;101156.16;6127901;23;20199;-74
2021/11/08 10:21:33;;;;;;;9.70;3.67;;;;;;;7.85;100.00;101151.78;6127929;23;20279;-74
2021/11/08 10:24:02;;;;;;;9.57;3.43;;;;;;;7.99;100.00;101152.53;6127147;23;20172;-74
2021/11/08 10:26:33;;;;;;;10.77;3.23;;;;;;;8.14;100.00;101155.03;6127196;23;20997;-74
2021/11/08 10:29:03;;;;;;;9.33;3.63;;;;;;;8.21;100.00;101170.56;6127236;23;20264;-74
2021/11/08 10:31:32;;;;;;;7.13;3.27;;;;;;;8.21;100.00;101161.00;6127804;23;20275;-74
2021/11/08 10:34:03;;;;;;;8.83;2.73;;;;;;;8.23;100.00;101166.19;6127163;23;20620;-74
2021/11/08 10:36:29;;;;;;;7.53;2.87;;;;;;;8.25;100.00;101165.34;6125538;23;20205;-74
2021/11/08 10:38:59;;;;;;;12.27;3.07;;;;;;;8.34;100.00;101165.25;6126897;23;20184;-74
2021/11/08 10:41:28;;;;;;;10.00;4.00;;;;;;;8.37;100.00;101169.53;6127400;23;20200;-74
2021/11/08 10:43:58;;;;;;;7.47;3.10;;;;;;;8.30;100.00;101178.25;6126791;23;20191;-73
2021/11/08 10:46:27;;;;;;;10.40;3.67;;;;;;;8.23;100.00;101184.38;6127833;23;20753;-74
2021/11/08 10:48:56;;;;;;;9.80;3.77;;;;;;;8.24;100.00;101180.94;6126804;23;20176;-74
2021/11/08 10:51:26;;;;;;;8.20;4.37;;;;;;;8.18;100.00;101180.97;6127606;23;20268;-74
2021/11/08 10:53:55;;;;;;;12.53;4.80;;;;;;;8.13;100.00;101181.00;6127701;23;20181;-73
2021/11/08 10:56:26;;;;;;;8.07;4.80;;;;;;;8.12;100.00;101187.06;6127151;23;20208;-74
2021/11/08 10:58:55;;;;;;;7.87;4.60;;;;;;;8.06;100.00;101182.78;6127269;23;20177;-73
2021/11/08 11:01:25;;;;;;;5.80;4.40;;;;;;;8.09;100.00;101184.47;6127045;23;20194;-73
2021/11/08 11:03:54;;;;;;;9.43;4.90;;;;;;;8.20;100.00;101190.47;6127590;23;20524;-74
2021/11/08 11:06:33;;;;;;;7.90;4.00;;;;;;;8.22;100.00;101195.66;6126827;23;20207;-73
2021/11/08 11:09:01;;;;;;;7.80;3.37;;;;;;;8.17;100.00;101198.28;6127062;23;20889;-74
2021/11/08 11:11:28;;;;;;;8.23;3.83;;;;;;;8.19;100.00;101193.94;6127298;23;20204;-74
2021/11/08 11:13:56;;;;;;;10.33;4.47;;;;;;;8.23;100.00;101192.19;6127051;23;20187;-73
2021/11/08 11:16:37;;;;;;;6.37;4.07;;;;;;;8.17;100.00;101192.25;6126795;23;20201;-74
2021/11/08 11:19:08;;;;;;;6.50;3.53;;;;;;;8.20;100.00;101187.88;6127311;23;20204;-73
2021/11/08 11:21:35;;;;;;;9.37;3.20;;;;;;;8.19;100.00;101190.50;6126623;23;20198;-73
2021/11/08 11:24:05;;;;;;;7.30;3.30;;;;;;;8.19;100.00;101187.88;6125317;23;20181;-73
2021/11/08 11:26:36;;;;;;;9.73;3.03;;;;;;;8.22;100.00;101193.91;6116061;23;20209;-74
2021/11/08 11:29:05;;;;;;;5.17;2.80;;;;;;;8.19;100.00;101193.09;6126782;23;20208;-73
2021/11/08 11:31:37;;;;;;;7.03;2.97;;;;;;;8.15;100.00;101198.28;6116744;23;20173;-74
2021/11/08 11:34:14;;;;;;;9.07;2.77;;;;;;;8.18;100.00;101188.75;6126846;23;20236;-73
2021/11/08 11:36:41;;;;;;;7.93;2.60;;;;;;;8.20;100.00;101193.06;6125842;23;20186;-74
2021/11/08 11:39:13;;;;;;;7.43;2.60;;;;;;;8.28;100.00;101187.81;6116615;23;20185;-73
2021/11/08 11:41:42;;;;;;;6.80;2.70;;;;;;;8.33;100.00;101188.63;6126650;23;20189;-74
2021/11/08 11:44:10;;;;;;;7.33;2.53;;;;;;;8.35;100.00;101181.69;6126936;23;20505;-73
2021/11/08 11:46:41;;;;;;;7.47;2.70;;;;;;;8.35;100.00;101189.50;6113625;23;20208;-74
2021/11/08 11:49:08;;;;;;;5.50;2.53;;;;;;;8.33;100.00;101188.63;6123813;23;20279;-73
2021/11/08 11:51:37;;;;;;;6.93;2.30;;;;;;;8.43;100.00;101190.31;6114514;23;20176;-74
2021/11/08 11:54:05;;;;;;;10.70;3.30;;;;;;;8.42;100.00;101195.50;6125803;23;20260;-74
2021/11/08 11:56:34;;;;;;;6.17;2.20;;;;;;;8.40;100.00;101192.06;6089416;23;20197;-74
2021/11/08 11:59:01;;;;;;;3.67;2.50;;;;;;;8.45;100.00;101190.31;6123089;23;20212;-74
2021/11/08 12:01:30;;;;;;;6.43;2.63;;;;;;;8.41;100.00;101185.97;6125373;23;20174;-74
2021/11/08 12:03:57;;;;;;;6.17;2.20;;;;;;;8.35;100.00;101192.09;6126494;23;20177;-73
2021/11/08 12:06:26;;;;;;;6.00;2.10;;;;;;;8.32;100.00;101187.78;6116844;23;20672;-73
2021/11/08 12:08:56;;;;;;;7.93;2.23;;;;;;;8.34;100.00;101188.63;6126355;23;20220;-74
2021/11/08 12:11:31;;;;;;;7.27;2.57;;;;;;;8.39;100.00;101188.59;6125604;23;20260;-74
2021/11/08 12:14:00;;;;;;;7.30;2.77;;;;;;;8.49;100.00;101192.88;6126530;23;20672;-73
2021/11/08 12:16:28;;;;;;;6.57;2.70;;;;;;;8.58;100.00;101196.28;6116682;23;20251;-73
2021/11/08 12:19:00;;;;;;;9.57;2.93;;;;;;;8.47;100.00;101198.97;6123710;23;20180;-73
2021/11/08 12:21:31;;;;;;;5.67;2.57;;;;;;;8.46;100.00;101198.09;6126330;23;20185;-73
2021/11/08 12:24:01;;;;;;;8.23;2.53;;;;;;;8.44;100.00;101192.06;6126779;23;20211;-73
2021/11/08 12:26:30;;;;;;;6.80;2.43;;;;;;;8.38;100.00;101188.63;6126641;23;20229;-73
2021/11/08 12:29:08;;;;;;;6.07;2.87;;;;;;;8.26;100.00;101190.41;6126520;23;20187;-74
2021/11/08 12:31:35;;;;;;;5.03;2.70;;;;;;;8.23;100.00;101184.38;6126236;23;20181;-73
2021/11/08 12:34:04;;;;;;;6.07;2.67;;;;;;;8.17;100.00;101187.03;6090982;23;20235;-74
2021/11/08 12:36:31;;;;;;;6.60;2.50;;;;;;;8.11;100.00;101181.00;6125923;23;20259;-73
2021/11/08 12:39:02;;;;;;;7.53;2.40;;;;;;;8.10;100.00;101181.03;6126221;23;20184;-73
2021/11/08 12:41:33;;;;;;;13.33;5.10;;;;;;;8.06;100.00;101193.16;6126289;23;20173;-73